Time;durP1;ratioP1;P1;durP2;ratioP2;P2;SDS_P1;SDS_P2;PMS_P1;PMS_P2;Temp;Humidity;BMP_temperature;BMP_pressure;BME280_temperature;BME280_humidity;BME280_pressure;Samples;Min_cycle;Max_cycle;Signal;HPM_P1;HPM_P2
2023/05/07 00:00:37;;;;;;;8.88;7.82;;;13.60;99.90;;;;;;5110045;28;20072;-83
2023/05/07 00:03:03;;;;;;;11.40;8.45;;;13.50;99.90;;;;;;5110086;28;20047;-83
2023/05/07 00:05:29;;;;;;;11.85;8.32;;;13.50;99.90;;;;;;5093182;28;20054;-83
2023/05/07 00:07:55;;;;;;;9.60;8.57;;;13.50;99.90;;;;;;5092257;28;20192;-82
2023/05/07 00:10:20;;;;;;;10.07;8.48;;;13.50;99.90;;;;;;5111876;27;20130;-83
2023/05/07 00:12:46;;;;;;;10.13;9.10;;;13.90;99.90;;;;;;5113955;27;20481;-83
2023/05/07 00:15:12;;;;;;;11.70;10.18;;;13.50;99.90;;;;;;5113974;27;20045;-82
2023/05/07 00:17:37;;;;;;;13.18;10.88;;;13.40;99.90;;;;;;5113182;27;20035;-83
2023/05/07 00:20:04;;;;;;;11.68;9.80;;;13.40;99.90;;;;;;5113820;27;20168;-83
2023/05/07 00:22:30;;;;;;;12.35;10.38;;;13.40;99.90;;;;;;5133027;27;20617;-83
2023/05/07 00:24:56;;;;;;;12.70;10.65;;;13.40;99.90;;;;;;5113255;27;20050;-83
2023/05/07 00:27:22;;;;;;;13.68;11.45;;;13.40;99.90;;;;;;5113643;27;20413;-83
2023/05/07 00:29:48;;;;;;;14.77;11.82;;;13.40;99.90;;;;;;5113846;27;20082;-83
2023/05/07 00:32:13;;;;;;;12.75;11.45;;;13.40;99.90;;;;;;5113543;27;20075;-83
2023/05/07 00:34:40;;;;;;;13.43;11.00;;;13.30;99.90;;;;;;5113143;27;20051;-83
2023/05/07 00:37:07;;;;;;;14.70;11.30;;;13.30;99.90;;;;;;5096792;27;20489;-83
2023/05/07 00:39:33;;;;;;;14.32;12.13;;;13.70;99.90;;;;;;5112553;27;20050;-83
2023/05/07 00:42:00;;;;;;;14.00;11.73;;;13.30;99.90;;;;;;5113631;27;20074;-83
2023/05/07 00:44:26;;;;;;;15.25;11.68;;;13.70;99.90;;;;;;5113390;27;20073;-82
2023/05/07 00:46:52;;;;;;;16.75;12.88;;;13.20;99.90;;;;;;5113165;27;20079;-83
2023/05/07 00:49:18;;;;;;;17.52;12.43;;;13.20;99.90;;;;;;5113381;27;20047;-82
2023/05/07 00:51:45;;;;;;;14.73;13.10;;;13.20;99.90;;;;;;5096557;27;20393;-83
2023/05/07 00:54:11;;;;;;;18.55;14.15;;;13.20;99.90;;;;;;5112690;27;20155;-84
2023/05/07 00:56:38;;;;;;;18.75;13.13;;;13.10;99.90;;;;;;5113000;27;20490;-82
2023/05/07 00:59:05;;;;;;;17.95;14.95;;;13.10;99.90;;;;;;5113343;27;20051;-83
2023/05/07 01:01:31;;;;;;;17.58;14.10;;;13.10;99.90;;;;;;5131486;27;20050;-83
2023/05/07 01:03:57;;;;;;;15.95;13.98;;;13.00;99.90;;;;;;5131147;27;20115;-82
2023/05/07 01:06:26;;;;;;;17.88;15.70;;;13.00;99.90;;;;;;5112685;27;20449;-83
2023/05/07 01:08:52;;;;;;;20.00;14.20;;;13.30;99.90;;;;;;5112400;27;20050;-83
2023/05/07 01:11:20;;;;;;;18.95;15.65;;;12.90;99.90;;;;;;5112894;27;20055;-83
2023/05/07 01:13:47;;;;;;;18.15;14.75;;;12.90;99.90;;;;;;5131039;27;20039;-82
2023/05/07 01:16:12;;;;;;;17.23;15.13;;;12.80;99.90;;;;;;5131500;27;20031;-83
2023/05/07 01:18:38;;;;;;;18.20;15.43;;;12.80;99.90;;;;;;5130747;27;20043;-83
2023/05/07 01:21:05;;;;;;;18.02;15.35;;;12.70;99.90;;;;;;5131676;27;20042;-83
2023/05/07 01:23:31;;;;;;;18.55;16.13;;;12.70;99.90;;;;;;5095002;27;20070;-83
2023/05/07 01:25:56;;;;;;;18.00;15.25;;;12.70;99.90;;;;;;5130724;27;20067;-83
2023/05/07 01:28:22;;;;;;;19.25;15.27;;;12.60;99.90;;;;;;5130812;27;20057;-83
2023/05/07 01:30:53;;;;;;;20.27;16.00;;;12.50;99.90;;;;;;5111511;27;20039;-83
2023/05/07 01:33:24;;;;;;;23.10;15.90;;;12.50;99.90;;;;;;5112349;27;20062;-83
2023/05/07 01:35:52;;;;;;;18.50;16.02;;;12.50;99.90;;;;;;5095358;27;20047;-82
2023/05/07 01:38:20;;;;;;;20.02;16.52;;;12.50;99.90;;;;;;5111794;27;20043;-83
2023/05/07 01:40:46;;;;;;;20.75;16.30;;;12.40;99.90;;;;;;5111832;27;20061;-83
2023/05/07 01:43:12;;;;;;;20.70;16.30;;;12.40;99.90;;;;;;5094715;27;20473;-83
2023/05/07 01:45:38;;;;;;;19.48;16.00;;;12.30;99.90;;;;;;5108377;28;20053;-82
2023/05/07 01:48:04;;;;;;;19.25;15.93;;;12.30;99.90;;;;;;5108658;28;20051;-83
2023/05/07 01:50:31;;;;;;;20.02;15.55;;;12.30;99.90;;;;;;5092122;28;20073;-83
2023/05/07 01:52:56;;;;;;;18.90;15.88;;;12.20;99.90;;;;;;5107890;28;20047;-83
2023/05/07 01:55:22;;;;;;;19.27;16.10;;;12.20;99.90;;;;;;5108419;28;20371;-83
2023/05/07 01:57:48;;;;;;;21.38;16.00;;;12.10;99.90;;;;;;5108210;28;20042;-83
2023/05/07 02:00:14;;;;;;;20.15;16.73;;;12.10;99.90;;;;;;5091933;28;20036;-83
2023/05/07 02:02:39;;;;;;;20.33;16.98;;;12.10;99.90;;;;;;5091080;28;20126;-83
2023/05/07 02:05:05;;;;;;;20.35;16.27;;;12.00;99.90;;;;;;5109323;28;20235;-82
2023/05/07 02:07:31;;;;;;;21.58;16.75;;;12.00;99.90;;;;;;5091170;28;20061;-83
2023/05/07 02:09:57;;;;;;;23.67;16.67;;;12.00;99.90;;;;;;5090974;28;20050;-83
2023/05/07 02:12:23;;;;;;;22.10;17.05;;;12.00;99.90;;;;;;5091242;28;20144;-83
2023/05/07 02:14:49;;;;;;;22.08;17.45;;;12.00;99.90;;;;;;5108936;28;20036;-83
2023/05/07 02:17:14;;;;;;;22.63;17.23;;;11.90;99.90;;;;;;5091175;28;20434;-83
2023/05/07 02:19:40;;;;;;;25.30;18.08;;;11.90;99.90;;;;;;5109436;28;20048;-83
2023/05/07 02:22:06;;;;;;;21.55;18.05;;;11.90;99.90;;;;;;5091293;28;20052;-83
2023/05/07 02:24:32;;;;;;;23.00;17.95;;;11.90;99.90;;;;;;5106704;28;20077;-83
2023/05/07 02:26:58;;;;;;;23.63;17.50;;;11.90;99.90;;;;;;5107978;28;20083;-83
2023/05/07 02:29:23;;;;;;;22.58;18.27;;;12.10;99.90;;;;;;5108314;28;20371;-83
2023/05/07 02:31:50;;;;;;;23.65;18.48;;;11.80;99.90;;;;;;5091313;28;20050;-83
2023/05/07 02:34:16;;;;;;;25.05;18.45;;;11.80;99.90;;;;;;5106629;28;20079;-83
2023/05/07 02:36:42;;;;;;;22.13;17.08;;;11.80;99.90;;;;;;5107666;28;20173;-83
2023/05/07 02:39:08;;;;;;;23.75;18.40;;;11.70;99.90;;;;;;5090479;28;20134;-83
2023/05/07 02:41:34;;;;;;;26.67;18.88;;;11.70;99.90;;;;;;5108481;28;20498;-83
2023/05/07 02:44:00;;;;;;;23.52;17.80;;;11.70;99.90;;;;;;5106581;28;20047;-82
2023/05/07 02:46:25;;;;;;;23.70;19.27;;;12.40;99.90;;;;;;5106456;28;20052;-82
2023/05/07 02:48:51;;;;;;;25.88;18.60;;;11.70;99.90;;;;;;5107014;28;20126;-83
2023/05/07 02:51:20;;;;;;;23.83;18.48;;;11.60;99.90;;;;;;5107211;28;20043;-83
2023/05/07 02:53:46;;;;;;;24.35;19.20;;;11.60;99.90;;;;;;5106678;28;20097;-82
2023/05/07 02:56:12;;;;;;;26.17;19.25;;;11.60;99.90;;;;;;5107725;28;20043;-83
2023/05/07 02:58:39;;;;;;;27.10;19.13;;;11.60;99.90;;;;;;5107055;28;20698;-83
2023/05/07 03:01:05;;;;;;;25.58;19.05;;;11.60;99.90;;;;;;5107128;28;20048;-82
2023/05/07 03:03:31;;;;;;;25.02;19.38;;;11.60;99.90;;;;;;5108095;28;20047;-83
2023/05/07 03:05:56;;;;;;;27.67;20.77;;;11.50;99.90;;;;;;5107334;28;20391;-83
2023/05/07 03:08:22;;;;;;;27.20;21.23;;;11.50;99.90;;;;;;5089306;28;20039;-83
2023/05/07 03:10:48;;;;;;;28.67;21.08;;;11.50;99.90;;;;;;5089596;28;20050;-83
2023/05/07 03:13:14;;;;;;;31.92;22.02;;;11.50;99.90;;;;;;5090018;28;20075;-83
2023/05/07 03:15:40;;;;;;;29.75;21.90;;;11.50;99.90;;;;;;5089986;28;20047;-83
2023/05/07 03:18:05;;;;;;;32.03;22.05;;;11.50;99.90;;;;;;5108080;28;20405;-82
2023/05/07 03:20:31;;;;;;;30.02;22.80;;;11.40;99.90;;;;;;5107271;28;20059;-83
2023/05/07 03:22:57;;;;;;;32.17;22.45;;;11.40;99.90;;;;;;5106507;28;20055;-83
2023/05/07 03:25:22;;;;;;;31.13;22.60;;;11.40;99.90;;;;;;5108415;28;20483;-83
2023/05/07 03:27:48;;;;;;;28.83;22.10;;;11.40;99.90;;;;;;5106379;28;20397;-83
2023/05/07 03:30:14;;;;;;;33.65;21.48;;;11.40;99.90;;;;;;5106476;28;20036;-83
2023/05/07 03:32:40;;;;;;;31.92;22.50;;;11.30;99.90;;;;;;5106194;28;20444;-83
2023/05/07 03:35:06;;;;;;;31.48;22.67;;;11.30;99.90;;;;;;5106298;28;20055;-83
2023/05/07 03:37:31;;;;;;;30.90;24.33;;;11.30;99.90;;;;;;5108183;28;20035;-83
2023/05/07 03:39:57;;;;;;;31.73;22.45;;;11.40;99.90;;;;;;5106401;28;20031;-83
2023/05/07 03:42:23;;;;;;;31.13;23.13;;;11.40;99.90;;;;;;5105942;28;20504;-83
2023/05/07 03:44:48;;;;;;;33.08;23.90;;;11.30;99.90;;;;;;5090123;28;20134;-83
2023/05/07 03:47:14;;;;;;;33.78;23.48;;;11.30;99.90;;;;;;5110448;28;20059;-83
2023/05/07 03:49:40;;;;;;;34.13;24.40;;;11.30;99.90;;;;;;5110110;28;20854;-83
2023/05/07 03:52:05;;;;;;;33.58;23.73;;;11.30;99.90;;;;;;5111484;28;20047;-83
2023/05/07 03:54:31;;;;;;;32.95;23.52;;;11.30;99.90;;;;;;5109880;28;20485;-84
2023/05/07 03:56:57;;;;;;;34.95;23.80;;;11.30;99.90;;;;;;5111378;28;20455;-82
2023/05/07 03:59:22;;;;;;;33.58;23.85;;;11.30;99.90;;;;;;5111093;28;20384;-83
2023/05/07 04:01:48;;;;;;;35.70;24.95;;;11.50;99.90;;;;;;5110336;28;20043;-83
2023/05/07 04:04:15;;;;;;;36.17;24.42;;;11.20;99.90;;;;;;5111774;28;20525;-83
2023/05/07 04:06:41;;;;;;;34.17;24.15;;;11.20;99.90;;;;;;5092842;28;20456;-83
2023/05/07 04:09:06;;;;;;;35.15;24.42;;;11.20;99.90;;;;;;5109884;28;20442;-83
2023/05/07 04:11:32;;;;;;;33.80;25.08;;;11.20;99.90;;;;;;5110803;27;20055;-83
2023/05/07 04:13:58;;;;;;;35.00;24.35;;;11.30;99.90;;;;;;5109876;28;20047;-83
2023/05/07 04:16:23;;;;;;;34.67;24.15;;;11.30;99.90;;;;;;5111296;28;20131;-83
2023/05/07 04:18:49;;;;;;;31.15;22.83;;;11.20;99.90;;;;;;5109429;28;20172;-83
2023/05/07 04:21:19;;;;;;;30.23;22.85;;;11.20;99.90;;;;;;5091988;28;20123;-83
2023/05/07 04:23:49;;;;;;;35.80;23.88;;;11.20;99.90;;;;;;5110717;28;20047;-83
2023/05/07 04:26:15;;;;;;;34.10;23.67;;;11.20;99.90;;;;;;5109256;28;20055;-84
2023/05/07 04:28:41;;;;;;;35.47;25.25;;;11.80;99.90;;;;;;5091997;28;20047;-83
2023/05/07 04:31:07;;;;;;;34.10;24.33;;;11.20;99.90;;;;;;5109614;28;20045;-83
2023/05/07 04:33:33;;;;;;;32.65;24.52;;;11.90;99.90;;;;;;5108989;28;20130;-82
2023/05/07 04:36:02;;;;;;;34.10;24.02;;;11.20;99.90;;;;;;5109368;28;20044;-83
2023/05/07 04:38:29;;;;;;;33.30;24.05;;;11.20;99.90;;;;;;5092192;28;20039;-83
2023/05/07 04:40:56;;;;;;;33.28;23.08;;;11.20;99.90;;;;;;5110142;28;20048;-82
2023/05/07 04:43:21;;;;;;;30.05;22.50;;;11.30;99.90;;;;;;5110276;28;20130;-83
2023/05/07 04:45:49;;;;;;;29.63;22.58;;;11.30;99.90;;;;;;5108835;28;20146;-83
2023/05/07 04:48:15;;;;;;;30.42;22.58;;;11.30;99.90;;;;;;5108639;28;20051;-83
2023/05/07 04:50:41;;;;;;;29.83;22.58;;;11.30;99.90;;;;;;5108870;28;20052;-83
2023/05/07 04:53:07;;;;;;;33.80;22.90;;;11.30;99.90;;;;;;5108558;28;20096;-82
2023/05/07 04:55:32;;;;;;;30.90;23.10;;;11.30;99.90;;;;;;5108465;28;20649;-82
2023/05/07 04:57:58;;;;;;;29.60;22.95;;;11.30;99.90;;;;;;5091621;28;20039;-82
2023/05/07 05:00:25;;;;;;;29.55;22.48;;;11.30;99.90;;;;;;5109311;28;20380;-82
2023/05/07 05:02:50;;;;;;;29.98;21.95;;;11.30;99.90;;;;;;5092319;28;20047;-82
2023/05/07 05:05:16;;;;;;;29.25;22.00;;;11.40;99.90;;;;;;5108735;28;20543;-83
2023/05/07 05:07:41;;;;;;;29.05;21.17;;;11.40;99.90;;;;;;5107748;28;20043;-83
2023/05/07 05:10:07;;;;;;;28.33;21.33;;;11.40;99.90;;;;;;5109050;28;20044;-83
2023/05/07 05:12:33;;;;;;;28.27;21.17;;;11.40;99.90;;;;;;5091681;28;20043;-83
2023/05/07 05:14:58;;;;;;;27.83;21.27;;;11.70;99.90;;;;;;5108809;28;20043;-82
2023/05/07 05:17:24;;;;;;;25.90;19.83;;;11.40;99.90;;;;;;5108222;28;20047;-83
2023/05/07 05:19:50;;;;;;;24.20;19.60;;;11.40;99.90;;;;;;5108626;28;20039;-82
2023/05/07 05:22:16;;;;;;;26.48;20.27;;;11.40;99.90;;;;;;5108573;28;20052;-83
2023/05/07 05:24:41;;;;;;;26.25;20.70;;;11.40;99.90;;;;;;5107608;28;20044;-82
2023/05/07 05:27:07;;;;;;;26.20;20.13;;;11.50;99.90;;;;;;5093466;28;20043;-82
2023/05/07 05:29:32;;;;;;;26.05;19.77;;;11.50;99.90;;;;;;5109556;28;20450;-83
2023/05/07 05:31:58;;;;;;;23.98;19.63;;;11.50;99.90;;;;;;5107763;28;20620;-82
2023/05/07 05:34:24;;;;;;;25.10;19.67;;;11.50;99.90;;;;;;5091849;28;20043;-83
2023/05/07 05:36:49;;;;;;;25.85;19.83;;;11.50;99.90;;;;;;5110752;28;20234;-82
2023/05/07 05:39:15;;;;;;;23.83;18.75;;;11.50;99.90;;;;;;5092133;28;20476;-83
2023/05/07 05:41:40;;;;;;;23.77;19.15;;;11.50;99.90;;;;;;5110748;28;20059;-82
2023/05/07 05:44:06;;;;;;;25.88;18.98;;;11.60;99.90;;;;;;5108131;28;20387;-83
2023/05/07 05:46:34;;;;;;;24.55;19.33;;;11.60;99.90;;;;;;5119883;27;20055;-83
2023/05/07 05:49:00;;;;;;;24.67;18.73;;;12.00;99.90;;;;;;5094331;27;20050;-83
2023/05/07 05:51:26;;;;;;;25.23;19.95;;;11.70;99.90;;;;;;5111327;27;20035;-83
2023/05/07 05:53:51;;;;;;;25.33;19.10;;;11.80;99.90;;;;;;5110124;27;20100;-82
2023/05/07 05:56:17;;;;;;;23.95;18.98;;;11.90;99.90;;;;;;5111261;27;20039;-83
2023/05/07 05:58:43;;;;;;;23.42;18.95;;;12.00;99.90;;;;;;5111061;27;20043;-82
2023/05/07 06:01:09;;;;;;;27.70;19.27;;;12.20;99.90;;;;;;5111475;27;20131;-83
2023/05/07 06:03:34;;;;;;;22.33;18.52;;;12.20;99.90;;;;;;5093466;27;20049;-83
2023/05/07 06:06:00;;;;;;;25.20;18.85;;;12.20;99.90;;;;;;5110938;27;20043;-83
2023/05/07 06:08:29;;;;;;;25.35;19.27;;;12.20;99.90;;;;;;5109901;27;20043;-83
2023/05/07 06:10:55;;;;;;;21.50;18.05;;;12.20;99.90;;;;;;5093915;27;20504;-83
2023/05/07 06:13:20;;;;;;;24.95;19.40;;;12.20;99.90;;;;;;5110788;27;20088;-83
2023/05/07 06:15:46;;;;;;;25.58;18.85;;;12.30;99.90;;;;;;5110564;27;20101;-83
2023/05/07 06:18:11;;;;;;;24.77;18.63;;;12.30;99.90;;;;;;5111041;27;20045;-83
2023/05/07 06:20:37;;;;;;;25.55;19.95;;;12.60;99.90;;;;;;5093831;27;20364;-83
2023/05/07 06:23:02;;;;;;;24.33;18.58;;;13.00;99.90;;;;;;5093157;27;20054;-83
2023/05/07 06:25:28;;;;;;;25.33;19.05;;;12.40;99.90;;;;;;5110746;27;20047;-83
2023/05/07 06:27:54;;;;;;;22.38;18.55;;;12.40;99.90;;;;;;5110406;27;20054;-82
2023/05/07 06:30:19;;;;;;;22.13;17.38;;;12.50;99.90;;;;;;5128606;27;20042;-83
2023/05/07 06:32:45;;;;;;;25.38;19.98;;;12.40;99.90;;;;;;5093777;27;20443;-84
2023/05/07 06:35:11;;;;;;;23.10;19.27;;;12.40;99.90;;;;;;5111049;27;20080;-83
2023/05/07 06:37:38;;;;;;;23.85;19.77;;;12.40;99.90;;;;;;5110185;27;20512;-83
2023/05/07 06:40:05;;;;;;;23.67;18.92;;;12.40;99.90;;;;;;5110093;28;20074;-83
2023/05/07 06:42:31;;;;;;;24.58;19.60;;;12.40;99.90;;;;;;5111460;28;20133;-83
2023/05/07 06:44:57;;;;;;;25.17;19.48;;;12.40;99.90;;;;;;5093398;27;20173;-83
2023/05/07 06:47:22;;;;;;;26.10;20.17;;;12.40;99.90;;;;;;5106666;28;20101;-83
2023/05/07 06:49:48;;;;;;;24.50;19.02;;;12.40;99.90;;;;;;5107156;28;20047;-84
2023/05/07 06:52:13;;;;;;;24.67;19.63;;;12.40;99.90;;;;;;5106478;28;20553;-83
2023/05/07 06:54:39;;;;;;;23.85;19.75;;;12.40;99.90;;;;;;5106560;28;20043;-83
2023/05/07 06:57:04;;;;;;;28.17;21.00;;;12.40;99.90;;;;;;5089797;28;20052;-83
2023/05/07 06:59:30;;;;;;;28.48;20.23;;;12.50;99.90;;;;;;5106957;28;20402;-83
2023/05/07 07:01:56;;;;;;;25.55;19.60;;;12.50;99.90;;;;;;5106899;28;20410;-83
2023/05/07 07:04:22;;;;;;;25.95;19.63;;;13.00;99.90;;;;;;5106230;28;20047;-83
2023/05/07 07:06:48;;;;;;;26.90;20.55;;;12.80;99.90;;;;;;5106663;28;20047;-83
2023/05/07 07:09:14;;;;;;;26.63;20.60;;;12.90;99.90;;;;;;5106096;28;20035;-83
2023/05/07 07:11:39;;;;;;;26.08;21.23;;;13.20;99.90;;;;;;5106825;28;20078;-83
2023/05/07 07:14:05;;;;;;;26.40;19.77;;;13.40;99.90;;;;;;5107014;28;20207;-84
2023/05/07 07:16:31;;;;;;;24.15;20.17;;;13.50;99.90;;;;;;5089315;28;20047;-83
2023/05/07 07:18:56;;;;;;;26.45;20.70;;;13.60;99.90;;;;;;5108939;28;20074;-84
2023/05/07 07:21:22;;;;;;;22.27;18.92;;;13.70;99.90;;;;;;5111205;28;20467;-83
2023/05/07 07:23:48;;;;;;;23.90;19.35;;;13.70;99.90;;;;;;5109746;28;20115;-84
2023/05/07 07:26:13;;;;;;;24.52;19.38;;;14.00;99.90;;;;;;5112236;28;20031;-83
2023/05/07 07:28:43;;;;;;;26.08;21.45;;;13.60;99.90;;;;;;5110624;28;20210;-84
2023/05/07 07:31:09;;;;;;;24.98;20.73;;;13.60;99.90;;;;;;5093185;28;20044;-84
2023/05/07 07:33:35;;;;;;;24.67;20.42;;;13.60;99.90;;;;;;5110970;28;20509;-84
2023/05/07 07:36:00;;;;;;;27.88;20.67;;;13.50;99.90;;;;;;5110887;28;20046;-84
2023/05/07 07:38:26;;;;;;;25.05;19.98;;;13.50;99.90;;;;;;5092316;28;20609;-83
2023/05/07 07:40:51;;;;;;;26.27;21.10;;;13.50;99.90;;;;;;5111667;28;20054;-84
2023/05/07 07:43:17;;;;;;;27.70;21.95;;;13.50;99.90;;;;;;5110412;28;20446;-83
2023/05/07 07:45:43;;;;;;;26.33;20.38;;;13.70;99.90;;;;;;5095612;27;20039;-83
2023/05/07 07:48:09;;;;;;;25.77;20.17;;;13.50;99.90;;;;;;5096148;27;20478;-83
2023/05/07 07:50:35;;;;;;;25.90;21.20;;;13.60;99.90;;;;;;5113675;27;20056;-83
2023/05/07 07:53:00;;;;;;;25.88;20.85;;;13.70;99.90;;;;;;5115320;27;20047;-84
2023/05/07 07:55:26;;;;;;;30.92;22.02;;;13.70;99.90;;;;;;5116076;27;20134;-84
2023/05/07 07:57:52;;;;;;;27.88;20.67;;;13.70;99.90;;;;;;5114990;27;20047;-83
2023/05/07 08:00:18;;;;;;;27.42;21.30;;;13.70;99.90;;;;;;5113600;27;20035;-83
2023/05/07 08:02:43;;;;;;;28.98;21.83;;;13.80;99.90;;;;;;5132407;27;20035;-83
2023/05/07 08:05:09;;;;;;;27.38;21.58;;;13.80;99.90;;;;;;5113689;27;20047;-83
2023/05/07 08:07:35;;;;;;;29.58;21.38;;;14.00;99.90;;;;;;5113336;27;20043;-84
2023/05/07 08:10:03;;;;;;;26.70;20.13;;;13.90;99.90;;;;;;5114009;27;20070;-83
2023/05/07 08:12:29;;;;;;;26.80;20.98;;;13.90;99.90;;;;;;5095954;27;20046;-83
2023/05/07 08:14:55;;;;;;;27.63;20.45;;;13.90;99.90;;;;;;5113539;27;20370;-83
2023/05/07 08:17:22;;;;;;;26.70;20.92;;;14.00;99.90;;;;;;5096362;27;20416;-84
2023/05/07 08:19:48;;;;;;;24.98;19.65;;;14.10;99.90;;;;;;5112741;27;20051;-83
2023/05/07 08:22:13;;;;;;;26.05;21.00;;;14.30;99.90;;;;;;5113040;27;20039;-83
2023/05/07 08:24:40;;;;;;;26.73;21.00;;;14.50;99.90;;;;;;5112071;27;20058;-83
2023/05/07 08:27:05;;;;;;;27.92;21.77;;;14.50;99.90;;;;;;5113619;27;20385;-83
2023/05/07 08:29:31;;;;;;;26.40;19.98;;;14.60;99.90;;;;;;5095728;27;20050;-84
2023/05/07 08:31:56;;;;;;;24.02;20.05;;;14.70;99.90;;;;;;5112190;27;20046;-84
2023/05/07 08:34:22;;;;;;;25.20;20.33;;;14.80;99.90;;;;;;5095776;27;20058;-83
2023/05/07 08:36:48;;;;;;;24.50;21.05;;;14.80;99.90;;;;;;5113160;27;20513;-84
2023/05/07 08:39:15;;;;;;;25.98;19.13;;;15.00;99.90;;;;;;5094872;27;20481;-84
2023/05/07 08:41:44;;;;;;;27.02;20.48;;;15.00;99.90;;;;;;5112597;27;20087;-84
2023/05/07 08:44:13;;;;;;;25.88;20.15;;;15.20;99.90;;;;;;5096330;27;20047;-84
2023/05/07 08:46:41;;;;;;;25.90;20.50;;;15.10;99.90;;;;;;5112594;27;20107;-83
2023/05/07 08:49:08;;;;;;;25.45;20.70;;;15.10;99.90;;;;;;5112552;27;20729;-84
2023/05/07 08:51:33;;;;;;;23.42;19.02;;;15.20;99.90;;;;;;5112946;27;20055;-84
2023/05/07 08:54:01;;;;;;;25.48;20.05;;;15.30;99.90;;;;;;5111674;27;20115;-83
2023/05/07 08:56:26;;;;;;;25.73;20.92;;;15.30;99.90;;;;;;5112215;27;20444;-83
2023/05/07 08:58:56;;;;;;;27.55;21.25;;;15.30;99.90;;;;;;5112290;27;20050;-83
2023/05/07 09:01:21;;;;;;;27.13;21.33;;;15.50;99.90;;;;;;5112749;27;20094;-84
2023/05/07 09:03:48;;;;;;;26.95;21.02;;;15.40;99.90;;;;;;5095327;27;20054;-83
2023/05/07 09:06:13;;;;;;;25.40;20.38;;;15.40;99.90;;;;;;5112656;27;20050;-83
2023/05/07 09:08:39;;;;;;;26.05;20.67;;;15.50;99.90;;;;;;5111084;27;20051;-84
2023/05/07 09:11:05;;;;;;;25.27;20.20;;;15.90;99.90;;;;;;5112513;27;20401;-83
2023/05/07 09:13:31;;;;;;;24.23;20.00;;;15.50;99.90;;;;;;5112468;27;20096;-83
2023/05/07 09:15:56;;;;;;;24.20;20.40;;;15.70;99.90;;;;;;5111683;27;20085;-83
2023/05/07 09:18:25;;;;;;;23.88;19.80;;;15.90;99.90;;;;;;5112215;27;20078;-83
2023/05/07 09:20:50;;;;;;;21.70;18.58;;;16.00;99.90;;;;;;5094942;27;20069;-84
2023/05/07 09:23:16;;;;;;;23.23;19.85;;;16.30;99.90;;;;;;5094801;27;20498;-84
2023/05/07 09:25:42;;;;;;;24.70;19.85;;;16.30;99.90;;;;;;5111418;27;20040;-84
2023/05/07 09:28:09;;;;;;;24.48;18.90;;;16.20;99.90;;;;;;5130227;27;20043;-84
2023/05/07 09:30:35;;;;;;;26.40;19.80;;;16.30;99.90;;;;;;5130006;27;20777;-83
2023/05/07 09:33:02;;;;;;;22.77;18.92;;;16.20;99.90;;;;;;5112829;27;20054;-84
2023/05/07 09:35:29;;;;;;;22.42;19.58;;;16.30;99.90;;;;;;5112349;27;20050;-83
2023/05/07 09:37:59;;;;;;;22.95;18.80;;;16.30;99.90;;;;;;5096464;27;20168;-84
2023/05/07 09:40:27;;;;;;;22.77;19.00;;;16.50;99.90;;;;;;5095393;27;20078;-83
2023/05/07 09:42:53;;;;;;;24.27;18.75;;;16.40;99.90;;;;;;5112028;27;20039;-84
2023/05/07 09:45:25;;;;;;;21.30;18.70;;;16.60;99.90;;;;;;5112451;27;20043;-83
2023/05/07 09:47:55;;;;;;;21.42;17.92;;;16.70;99.90;;;;;;5110695;27;20440;-84
2023/05/07 09:50:28;;;;;;;19.08;17.05;;;17.10;99.90;;;;;;5111737;27;20405;-83
2023/05/07 09:52:57;;;;;;;23.77;17.77;;;16.90;99.90;;;;;;5111109;27;20047;-83
2023/05/07 09:55:23;;;;;;;21.23;18.35;;;17.00;99.90;;;;;;5111339;27;20043;-84
2023/05/07 09:57:53;;;;;;;19.77;17.48;;;17.10;99.90;;;;;;5111929;27;20043;-83
2023/05/07 10:00:21;;;;;;;19.48;17.38;;;17.40;99.90;;;;;;5129389;27;20131;-84
2023/05/07 10:02:52;;;;;;;21.85;18.35;;;17.40;99.90;;;;;;5111287;27;20046;-84
2023/05/07 10:05:19;;;;;;;20.13;17.33;;;17.50;99.90;;;;;;5111448;27;20047;-83
2023/05/07 10:07:46;;;;;;;19.40;17.13;;;17.40;99.90;;;;;;5110783;27;20116;-84
2023/05/07 10:10:12;;;;;;;20.13;17.55;;;17.40;99.90;;;;;;5111644;27;20087;-84
2023/05/07 10:12:40;;;;;;;20.00;17.90;;;17.40;99.90;;;;;;5110968;27;20039;-83
2023/05/07 10:15:10;;;;;;;18.67;16.40;;;17.30;99.90;;;;;;5110836;27;20122;-84
2023/05/07 10:17:40;;;;;;;18.52;16.45;;;17.40;99.90;;;;;;5110741;27;20054;-84
2023/05/07 10:20:06;;;;;;;20.80;16.95;;;17.40;99.90;;;;;;5110572;27;20091;-84
2023/05/07 10:22:48;;;;;;;18.15;15.82;;;17.40;99.90;;;;;;5110688;27;20079;-83
2023/05/07 10:25:25;;;;;;;17.65;15.77;;;17.50;99.90;;;;;;5111103;27;20081;-83
2023/05/07 10:27:54;;;;;;;17.60;15.75;;;17.70;99.90;;;;;;5110621;27;20516;-84
2023/05/07 10:30:41;;;;;;;18.88;16.98;;;17.70;99.90;;;;;;5110775;27;20045;-84
2023/05/07 10:33:10;;;;;;;19.42;17.35;;;17.70;99.90;;;;;;5110208;27;20126;-84
2023/05/07 10:35:44;;;;;;;18.25;16.15;;;17.70;99.90;;;;;;5111211;27;20043;-84
2023/05/07 10:38:11;;;;;;;19.00;16.92;;;17.80;99.90;;;;;;5110261;27;20566;-84
2023/05/07 10:40:37;;;;;;;18.05;16.08;;;18.30;99.90;;;;;;5110298;27;20039;-84
2023/05/07 10:43:06;;;;;;;19.08;15.95;;;18.10;99.90;;;;;;5110305;27;20103;-84
2023/05/07 10:45:32;;;;;;;18.27;15.68;;;18.30;99.90;;;;;;5128843;27;20063;-84
2023/05/07 10:48:18;;;;;;;18.80;15.50;;;18.50;99.90;;;;;;5110525;27;20520;-84
2023/05/07 10:50:47;;;;;;;17.17;14.98;;;18.60;99.90;;;;;;5109188;27;20086;-84
2023/05/07 10:53:19;;;;;;;18.33;16.42;;;18.70;99.90;;;;;;5109982;27;20546;-84
2023/05/07 10:55:49;;;;;;;17.17;15.15;;;18.80;99.90;;;;;;5093211;27;20066;-84
2023/05/07 10:58:20;;;;;;;18.77;15.73;;;18.90;99.90;;;;;;5110589;28;20051;-84
2023/05/07 11:00:47;;;;;;;18.20;15.00;;;18.50;99.90;;;;;;5110402;28;20047;-84
2023/05/07 11:03:14;;;;;;;16.15;14.55;;;18.90;99.90;;;;;;5110463;28;20063;-85
2023/05/07 11:05:41;;;;;;;16.98;15.15;;;19.10;99.90;;;;;;5094054;28;20043;-84
2023/05/07 11:08:06;;;;;;;16.88;14.68;;;19.20;99.90;;;;;;5111010;28;20636;-84
2023/05/07 11:10:55;;;;;;;16.30;14.70;;;19.20;99.90;;;;;;5110643;28;20506;-84
2023/05/07 11:13:56;;;;;;;16.45;14.82;;;19.40;99.90;;;;;;5110208;28;20035;-84
2023/05/07 11:16:23;;;;;;;15.70;14.00;;;19.70;99.90;;;;;;5028550;28;20052;-84
2023/05/07 11:18:53;;;;;;;16.75;14.98;;;20.10;99.90;;;;;;5094044;28;20094;-84
2023/05/07 11:21:38;;;;;;;16.67;14.43;;;20.10;99.90;;;;;;5129023;28;20051;-84
2023/05/07 11:24:05;;;;;;;15.23;13.63;;;20.10;99.90;;;;;;5109874;28;20103;-85
2023/05/07 11:26:45;;;;;;;17.20;15.38;;;20.10;99.90;;;;;;5110515;28;20047;-85
2023/05/07 11:29:17;;;;;;;15.38;13.82;;;20.30;99.90;;;;;;5110347;28;20082;-84
2023/05/07 11:31:43;;;;;;;16.35;14.73;;;20.50;99.90;;;;;;5128666;28;20122;-84
2023/05/07 11:34:09;;;;;;;15.43;13.88;;;20.20;99.90;;;;;;5110171;28;20150;-84
2023/05/07 11:36:41;;;;;;;16.23;14.52;;;20.10;99.90;;;;;;5127563;28;20501;-85
2023/05/07 11:39:25;;;;;;;15.82;14.15;;;20.20;99.90;;;;;;5110599;28;20180;-84
2023/05/07 11:41:51;;;;;;;16.67;14.88;;;20.10;99.90;;;;;;5110261;28;20446;-83
2023/05/07 11:44:19;;;;;;;17.02;14.35;;;20.00;99.90;;;;;;5109349;28;20134;-84
2023/05/07 11:46:48;;;;;;;16.00;14.30;;;20.20;99.90;;;;;;5109750;28;20055;-84
2023/05/07 11:49:14;;;;;;;16.30;14.63;;;20.40;99.90;;;;;;5110039;28;20039;-84
2023/05/07 11:51:41;;;;;;;16.23;14.63;;;20.40;99.90;;;;;;5109815;28;20051;-84
2023/05/07 11:54:10;;;;;;;17.50;14.60;;;20.40;99.90;;;;;;5109482;28;20354;-84
2023/05/07 11:56:37;;;;;;;17.02;15.25;;;20.50;99.90;;;;;;5127564;28;20390;-84
2023/05/07 11:59:02;;;;;;;16.08;14.45;;;20.50;99.90;;;;;;5128250;28;20070;-84
2023/05/07 12:01:28;;;;;;;14.98;13.15;;;20.40;99.90;;;;;;5093200;28;20078;-84
2023/05/07 12:03:53;;;;;;;15.85;14.15;;;20.30;99.90;;;;;;5112573;28;20067;-84
2023/05/07 12:06:19;;;;;;;16.55;14.85;;;20.20;99.90;;;;;;5113579;27;20072;-83
2023/05/07 12:08:45;;;;;;;15.13;13.63;;;20.30;99.90;;;;;;5114924;27;20039;-84
2023/05/07 12:11:21;;;;;;;15.98;13.93;;;20.30;99.90;;;;;;5096994;27;20427;-83
2023/05/07 12:13:47;;;;;;;16.25;13.93;;;20.30;99.90;;;;;;5112550;27;20419;-83
2023/05/07 12:16:13;;;;;;;16.65;14.93;;;20.30;99.90;;;;;;5113221;27;20039;-83
2023/05/07 12:18:39;;;;;;;15.32;13.73;;;20.40;99.90;;;;;;5112990;27;20042;-83
2023/05/07 12:21:06;;;;;;;14.95;13.52;;;20.50;99.90;;;;;;5113259;27;20058;-84
2023/05/07 12:23:33;;;;;;;15.05;13.50;;;20.60;99.90;;;;;;5112047;27;20084;-83
2023/05/07 12:25:59;;;;;;;14.95;13.45;;;21.10;99.90;;;;;;5131587;27;20493;-83